KHBR

Hobart Regional Airport

Hobart, Oklahoma, USA
METAR KHBR 210653Z AUTO 00000KT 10SM CLR 17/16 A3007 RMK AO2 SLP170 T01720156
Observed Flight Rules
May-21 @ 06:53 UTC (18 minutes ago) Visual Flight Rules
Visibility Clouds
10 miles
  • Clear skies
Temperatures Readings
Current 17°C / 63°F
Dewpoint 16°C / 61°F
Humidity 94%
Altimeter 30.07" Hg
Pressure 1017 hPa
Elevation 473
METAR KHBR 210653Z AUTO 00000KT 10SM CLR 17/16 A3007 RMK AO2 SLP170 T01720156
Observed Flight Rules
May-21 @ 06:53 UTC
(18 minutes ago)
VFR
Clouds
  • Clear skies
Temperature Dewpoint
17°C / 63°F 16°C / 61°F
Humidity Altimeter Pressure
94% 30.07" Hg 1017 hPa